Time;durP1;ratioP1;P1;durP2;ratioP2;P2;SDS_P1;SDS_P2;PMS_P1;PMS_P2;Temp;Humidity;BMP_temperature;BMP_pressure;BME280_temperature;BME280_humidity;BME280_pressure;Samples;Min_cycle;Max_cycle;Signal;HPM_P1;HPM_P2
2023/11/20 00:01:42;;;;;;;13.50;2.78;;;12.60;99.90;;;;;;5082685;28;20024;-37
2023/11/20 00:04:07;;;;;;;13.73;3.13;;;12.50;99.90;;;;;;5082381;28;20024;-37
2023/11/20 00:06:33;;;;;;;12.98;2.53;;;12.50;99.90;;;;;;5081802;28;20023;-38
2023/11/20 00:08:59;;;;;;;11.38;2.53;;;12.60;99.90;;;;;;5082065;28;20035;-37
2023/11/20 00:11:27;;;;;;;15.65;2.72;;;12.60;99.90;;;;;;5082556;28;20038;-37
2023/11/20 00:13:53;;;;;;;17.13;3.80;;;12.60;99.90;;;;;;5083230;28;20028;-37
2023/11/20 00:16:18;;;;;;;16.48;3.65;;;12.50;99.90;;;;;;5082617;28;20039;-37
2023/11/20 00:18:44;;;;;;;14.23;3.00;;;12.50;99.90;;;;;;5083946;28;20031;-39
2023/11/20 00:21:09;;;;;;;13.43;2.72;;;12.50;99.90;;;;;;5082306;28;20028;-37
2023/11/20 00:23:35;;;;;;;13.10;2.60;;;12.50;99.90;;;;;;5082129;28;20495;-37
2023/11/20 00:26:01;;;;;;;10.63;2.72;;;12.50;99.90;;;;;;5081975;28;20027;-37
2023/11/20 00:28:27;;;;;;;10.05;2.50;;;12.50;99.90;;;;;;5081783;28;20017;-37
2023/11/20 00:30:52;;;;;;;13.75;2.70;;;12.50;99.90;;;;;;5081754;28;20057;-37
2023/11/20 00:33:18;;;;;;;13.02;2.80;;;12.50;99.90;;;;;;5082421;28;20070;-37
2023/11/20 00:35:43;;;;;;;15.43;3.30;;;12.50;99.90;;;;;;5080969;28;20028;-38
2023/11/20 00:38:09;;;;;;;14.05;2.78;;;12.50;99.90;;;;;;5082099;28;20031;-36
2023/11/20 00:40:35;;;;;;;12.80;2.63;;;12.50;99.90;;;;;;5082387;28;20139;-36
2023/11/20 00:43:00;;;;;;;13.23;2.45;;;12.50;99.90;;;;;;5080897;28;20028;-36
2023/11/20 00:45:26;;;;;;;11.98;2.20;;;12.50;99.90;;;;;;5082062;28;20769;-36
2023/11/20 00:47:52;;;;;;;10.60;3.20;;;12.50;99.90;;;;;;5082179;28;20485;-36
2023/11/20 00:50:17;;;;;;;8.15;2.20;;;12.50;99.90;;;;;;5079416;28;20055;-37
2023/11/20 00:52:44;;;;;;;6.38;1.80;;;12.50;99.90;;;;;;5070521;28;20022;-37
2023/11/20 00:55:10;;;;;;;8.82;2.33;;;12.50;99.90;;;;;;5080977;28;20031;-36
2023/11/20 00:57:36;;;;;;;10.00;2.38;;;12.40;99.90;;;;;;5069378;28;20490;-37
2023/11/20 01:00:07;;;;;;;11.30;2.90;;;12.40;99.90;;;;;;5082261;28;20677;-36
2023/11/20 01:02:33;;;;;;;9.38;2.08;;;12.40;99.90;;;;;;5068972;28;20025;-41
2023/11/20 01:04:59;;;;;;;5.53;1.77;;;12.40;99.90;;;;;;5081911;28;20038;-36
2023/11/20 01:07:25;;;;;;;5.30;2.10;;;12.40;99.90;;;;;;5070045;28;20025;-38
2023/11/20 01:09:51;;;;;;;10.73;2.72;;;12.40;99.90;;;;;;5079029;28;20059;-36
2023/11/20 01:12:17;;;;;;;9.65;2.33;;;12.40;99.90;;;;;;5073787;28;20067;-38
2023/11/20 01:14:44;;;;;;;7.55;2.25;;;12.40;99.90;;;;;;5077440;28;20073;-38
2023/11/20 01:17:09;;;;;;;10.23;1.90;;;12.40;99.90;;;;;;5074707;28;20035;-37
2023/11/20 01:19:35;;;;;;;7.15;1.73;;;12.40;99.90;;;;;;5075079;28;20047;-37
2023/11/20 01:22:00;;;;;;;7.78;2.13;;;12.40;99.90;;;;;;5077927;28;20543;-36
2023/11/20 01:24:26;;;;;;;8.93;2.22;;;12.40;99.90;;;;;;5071378;28;20024;-39
2023/11/20 01:26:53;;;;;;;7.90;2.20;;;12.40;99.90;;;;;;5079911;28;20024;-37
2023/11/20 01:29:19;;;;;;;7.45;2.38;;;12.30;99.90;;;;;;5071017;28;20043;-37
2023/11/20 01:31:45;;;;;;;8.10;1.92;;;12.40;99.90;;;;;;5079671;28;20036;-36
2023/11/20 01:34:11;;;;;;;11.10;2.47;;;12.30;99.90;;;;;;5069773;28;20020;-35
2023/11/20 01:36:37;;;;;;;6.78;2.08;;;12.30;99.90;;;;;;5081744;28;20028;-36
2023/11/20 01:39:03;;;;;;;6.75;2.30;;;12.30;99.90;;;;;;5067380;28;20111;-36
2023/11/20 01:41:29;;;;;;;10.10;2.38;;;12.30;99.90;;;;;;5081389;28;20068;-37
2023/11/20 01:43:58;;;;;;;10.43;2.40;;;12.30;99.90;;;;;;5067816;28;20025;-36
2023/11/20 01:46:27;;;;;;;10.05;3.47;;;12.30;99.90;;;;;;5081311;28;20024;-38
2023/11/20 01:48:53;;;;;;;8.93;2.40;;;12.30;99.90;;;;;;5073508;28;20056;-36
2023/11/20 01:51:19;;;;;;;9.88;2.55;;;12.30;99.90;;;;;;5081250;28;20043;-36
2023/11/20 01:53:46;;;;;;;11.65;2.97;;;12.30;99.90;;;;;;5082098;28;20237;-36
2023/11/20 01:56:13;;;;;;;10.63;2.80;;;12.30;99.90;;;;;;5081268;28;20372;-38
2023/11/20 01:58:39;;;;;;;11.82;3.20;;;12.30;99.90;;;;;;5080700;28;20135;-37
2023/11/20 02:01:05;;;;;;;7.55;2.28;;;12.30;99.90;;;;;;5081327;28;20024;-37
2023/11/20 02:03:34;;;;;;;12.18;2.60;;;12.30;99.90;;;;;;5080801;28;20016;-36
2023/11/20 02:06:04;;;;;;;10.57;2.47;;;12.30;99.90;;;;;;5080558;28;20028;-38
2023/11/20 02:08:29;;;;;;;13.55;2.65;;;12.30;99.90;;;;;;5081236;28;20020;-38
2023/11/20 02:11:00;;;;;;;12.18;2.60;;;12.20;99.90;;;;;;5080025;28;20121;-37
2023/11/20 02:13:27;;;;;;;10.82;2.75;;;12.20;99.90;;;;;;5080326;28;20024;-37
2023/11/20 02:15:53;;;;;;;8.73;2.25;;;12.20;99.90;;;;;;5080524;28;20475;-37
2023/11/20 02:18:37;;;;;;;15.18;3.28;;;12.20;99.90;;;;;;5082549;28;20736;-37
2023/11/20 02:21:04;;;;;;;10.13;1.95;;;12.20;99.90;;;;;;5083546;28;20169;-37
2023/11/20 02:23:30;;;;;;;10.50;2.17;;;12.10;99.90;;;;;;5084684;28;20027;-37
2023/11/20 02:26:34;;;;;;;10.07;2.25;;;12.20;99.90;;;;;;5084154;28;20503;-37
2023/11/20 02:29:31;;;;;;;6.00;1.67;;;12.10;99.90;;;;;;5083911;28;20650;-37
2023/11/20 02:31:57;;;;;;;11.38;2.22;;;12.10;99.90;;;;;;5055108;28;20048;-36
2023/11/20 02:34:23;;;;;;;11.07;2.45;;;12.10;99.90;;;;;;5084412;28;20503;-40
2023/11/20 02:36:49;;;;;;;14.48;3.08;;;12.10;99.90;;;;;;5084394;28;20024;-36
2023/11/20 02:39:14;;;;;;;8.15;2.22;;;12.10;99.90;;;;;;5084381;28;20026;-36
2023/11/20 02:41:40;;;;;;;14.15;2.38;;;12.00;99.90;;;;;;5083494;28;20024;-37
2023/11/20 02:44:08;;;;;;;11.20;2.20;;;12.00;99.90;;;;;;5084662;28;20085;-36
2023/11/20 02:46:34;;;;;;;11.75;2.30;;;12.00;99.90;;;;;;5081075;28;20089;-36
2023/11/20 02:48:59;;;;;;;10.38;2.20;;;12.00;99.90;;;;;;5083802;28;20071;-36
2023/11/20 02:51:27;;;;;;;10.18;2.20;;;12.00;99.90;;;;;;5083725;28;20032;-37
2023/11/20 02:53:53;;;;;;;9.65;2.28;;;12.00;99.90;;;;;;5083855;28;20077;-36
2023/11/20 02:56:24;;;;;;;16.40;2.47;;;11.90;99.90;;;;;;5083490;28;20835;-37
2023/11/20 02:58:51;;;;;;;10.35;2.35;;;11.90;99.90;;;;;;5084401;28;20027;-36
2023/11/20 03:01:16;;;;;;;12.75;2.08;;;11.90;99.90;;;;;;5084275;28;20032;-37
2023/11/20 03:03:42;;;;;;;8.57;2.17;;;11.90;99.90;;;;;;5083505;28;20017;-37
2023/11/20 03:06:07;;;;;;;9.10;2.42;;;11.90;99.90;;;;;;5083983;28;20700;-36
2023/11/20 03:08:33;;;;;;;9.80;1.70;;;11.90;99.90;;;;;;5084105;28;20024;-37
2023/11/20 03:10:58;;;;;;;6.68;2.03;;;11.90;99.90;;;;;;5083157;28;20055;-37
2023/11/20 03:13:24;;;;;;;10.75;1.77;;;11.90;99.90;;;;;;5083924;28;20471;-36
2023/11/20 03:15:51;;;;;;;10.35;2.55;;;11.90;99.90;;;;;;5082161;28;20552;-37
2023/11/20 03:18:17;;;;;;;10.13;2.15;;;11.90;99.90;;;;;;5084224;28;20024;-37
2023/11/20 03:20:43;;;;;;;9.55;2.15;;;11.90;99.90;;;;;;5083076;28;20052;-36
2023/11/20 03:23:08;;;;;;;6.97;1.85;;;11.90;99.90;;;;;;5082646;28;20047;-37
2023/11/20 03:25:34;;;;;;;9.57;2.00;;;11.90;99.90;;;;;;5084078;28;20040;-37
2023/11/20 03:28:03;;;;;;;9.98;1.80;;;11.90;99.90;;;;;;5082757;28;20032;-38
2023/11/20 03:30:32;;;;;;;6.10;1.63;;;11.90;99.90;;;;;;5083135;28;20036;-36
2023/11/20 03:32:58;;;;;;;5.72;1.75;;;11.90;99.90;;;;;;5082029;28;20031;-38
2023/11/20 03:35:23;;;;;;;5.70;1.75;;;11.90;99.90;;;;;;5083541;28;20028;-38
2023/11/20 03:37:49;;;;;;;6.38;1.73;;;11.90;99.90;;;;;;5082499;28;20020;-38
2023/11/20 03:40:14;;;;;;;6.88;1.80;;;11.90;99.90;;;;;;5082825;28;20035;-37
2023/11/20 03:42:40;;;;;;;7.95;1.60;;;11.90;99.90;;;;;;5082986;28;20037;-38
2023/11/20 03:45:06;;;;;;;6.80;1.60;;;11.90;99.90;;;;;;5082939;28;20035;-38
2023/11/20 03:47:31;;;;;;;6.97;1.85;;;11.90;99.90;;;;;;5083976;28;20043;-38
2023/11/20 03:49:57;;;;;;;8.05;1.60;;;12.00;99.90;;;;;;5083539;28;20163;-38
2023/11/20 03:52:22;;;;;;;5.22;1.40;;;12.00;99.90;;;;;;5076594;28;20384;-38
2023/11/20 03:54:48;;;;;;;5.95;1.63;;;12.00;99.90;;;;;;5077201;28;20130;-37
2023/11/20 03:57:14;;;;;;;9.90;2.28;;;12.00;99.90;;;;;;5079465;28;20020;-37
2023/11/20 03:59:39;;;;;;;9.05;2.25;;;12.00;99.90;;;;;;5073286;28;20131;-37
2023/11/20 04:02:05;;;;;;;12.38;1.73;;;12.00;99.90;;;;;;5081254;28;20265;-38
2023/11/20 04:04:31;;;;;;;12.02;3.25;;;12.00;99.90;;;;;;5072334;28;20024;-46
2023/11/20 04:06:58;;;;;;;10.60;2.47;;;12.00;99.90;;;;;;5080694;28;20021;-38
2023/11/20 04:09:23;;;;;;;7.75;1.67;;;12.00;99.90;;;;;;5071913;28;20028;-37
2023/11/20 04:11:49;;;;;;;10.25;1.60;;;12.00;99.90;;;;;;5082681;28;20050;-37
2023/11/20 04:14:15;;;;;;;9.02;2.15;;;12.00;99.90;;;;;;5069692;28;20030;-37
2023/11/20 04:16:41;;;;;;;9.07;2.08;;;12.00;99.90;;;;;;5082699;28;20028;-39
2023/11/20 04:19:06;;;;;;;13.02;2.85;;;12.00;99.90;;;;;;5068641;28;20872;-38
2023/11/20 04:21:32;;;;;;;8.52;2.05;;;12.00;99.90;;;;;;5082819;28;20067;-38
2023/11/20 04:23:58;;;;;;;12.10;2.88;;;11.90;99.90;;;;;;5071898;28;20024;-37
2023/11/20 04:26:24;;;;;;;10.88;2.35;;;12.00;99.90;;;;;;5080603;28;20547;-37
2023/11/20 04:28:50;;;;;;;13.30;2.55;;;11.90;99.90;;;;;;5074260;28;20027;-37
2023/11/20 04:31:16;;;;;;;8.27;2.30;;;11.90;99.90;;;;;;5079367;28;20036;-38
2023/11/20 04:33:43;;;;;;;8.23;2.20;;;11.90;99.90;;;;;;5076018;28;20028;-37
2023/11/20 04:36:10;;;;;;;11.98;2.28;;;12.00;99.90;;;;;;5075860;28;20043;-38
2023/11/20 04:38:37;;;;;;;9.48;2.20;;;11.90;99.90;;;;;;5079414;28;20118;-38
2023/11/20 04:41:03;;;;;;;11.65;2.50;;;11.90;99.90;;;;;;5071481;28;20106;-38
2023/11/20 04:43:29;;;;;;;10.52;2.28;;;11.90;99.90;;;;;;5080473;28;20020;-38
2023/11/20 04:45:54;;;;;;;9.60;2.40;;;12.00;99.90;;;;;;5070443;28;20031;-37
2023/11/20 04:48:20;;;;;;;8.18;2.17;;;11.90;99.90;;;;;;5080289;28;20813;-37
2023/11/20 04:50:46;;;;;;;9.75;2.40;;;11.90;99.90;;;;;;5070244;28;20140;-37
2023/11/20 04:53:11;;;;;;;9.30;2.22;;;11.90;99.90;;;;;;5082314;28;20075;-38
2023/11/20 04:55:37;;;;;;;9.82;2.90;;;11.90;99.90;;;;;;5068079;28;20478;-38
2023/11/20 04:58:02;;;;;;;11.05;2.03;;;11.90;99.90;;;;;;5081794;28;20035;-38
2023/11/20 05:00:29;;;;;;;8.38;1.92;;;11.90;99.90;;;;;;5069208;28;20436;-38
2023/11/20 05:02:55;;;;;;;12.20;2.85;;;11.90;99.90;;;;;;5080599;28;20437;-37
2023/11/20 05:05:20;;;;;;;8.52;2.42;;;11.90;99.90;;;;;;5071177;28;20111;-39
2023/11/20 05:07:46;;;;;;;11.20;2.85;;;11.90;99.90;;;;;;5079152;28;20032;-38
2023/11/20 05:10:11;;;;;;;9.85;2.28;;;11.90;99.90;;;;;;5071954;28;20037;-38
2023/11/20 05:12:37;;;;;;;8.18;2.03;;;11.90;99.90;;;;;;5077318;28;20052;-37
2023/11/20 05:15:03;;;;;;;8.35;1.95;;;11.90;99.90;;;;;;5069548;28;20363;-37
2023/11/20 05:17:28;;;;;;;9.63;2.00;;;11.90;99.90;;;;;;5067563;28;20131;-38
2023/11/20 05:19:57;;;;;;;12.13;2.65;;;11.90;99.90;;;;;;5064039;28;20154;-37
2023/11/20 05:22:23;;;;;;;10.07;2.72;;;11.90;99.90;;;;;;5070035;28;20024;-38
2023/11/20 05:24:48;;;;;;;8.88;2.20;;;11.90;99.90;;;;;;5062458;28;20070;-40
2023/11/20 05:27:14;;;;;;;8.02;2.13;;;11.90;99.90;;;;;;5072090;28;20029;-36
2023/11/20 05:29:40;;;;;;;9.95;2.25;;;11.90;99.90;;;;;;5061819;28;20020;-37
2023/11/20 05:32:06;;;;;;;11.02;2.10;;;11.90;99.90;;;;;;5072191;28;20028;-38
2023/11/20 05:34:33;;;;;;;10.93;3.08;;;11.90;99.90;;;;;;5061114;28;20750;-36
2023/11/20 05:37:02;;;;;;;8.18;1.98;;;11.90;99.90;;;;;;5072880;28;20028;-36
2023/11/20 05:39:27;;;;;;;7.75;1.90;;;11.90;99.90;;;;;;5061425;28;20082;-37
2023/11/20 05:41:53;;;;;;;8.13;2.10;;;11.90;99.90;;;;;;5073541;28;20036;-36
2023/11/20 05:44:19;;;;;;;11.35;2.22;;;11.90;99.90;;;;;;5060542;28;20060;-37
2023/11/20 05:46:57;;;;;;;10.15;2.03;;;11.90;99.90;;;;;;5071487;28;20119;-37
2023/11/20 05:49:22;;;;;;;6.50;1.90;;;11.90;99.90;;;;;;5049576;28;20049;-37
2023/11/20 05:51:51;;;;;;;7.68;2.30;;;11.90;99.90;;;;;;5073421;28;20043;-38
2023/11/20 05:54:17;;;;;;;8.18;1.83;;;11.90;99.90;;;;;;5086461;28;20024;-36
2023/11/20 05:56:43;;;;;;;9.90;1.90;;;11.90;99.90;;;;;;5087393;28;20036;-41
2023/11/20 05:59:09;;;;;;;13.93;2.40;;;11.90;99.90;;;;;;5086401;28;20016;-36
2023/11/20 06:01:41;;;;;;;9.70;1.95;;;11.90;99.90;;;;;;5087230;28;20016;-36
2023/11/20 06:04:08;;;;;;;9.98;2.28;;;11.80;99.90;;;;;;5087314;28;20497;-37
2023/11/20 06:06:41;;;;;;;9.43;2.45;;;11.80;99.90;;;;;;5087421;28;20186;-36
2023/11/20 06:09:10;;;;;;;11.23;2.10;;;11.80;99.90;;;;;;5087565;28;20759;-36
2023/11/20 06:11:36;;;;;;;10.32;2.10;;;11.90;99.90;;;;;;5086802;28;20036;-35
2023/11/20 06:14:05;;;;;;;10.02;2.13;;;11.80;99.90;;;;;;5087771;28;20533;-37
2023/11/20 06:16:30;;;;;;;10.23;1.85;;;11.80;99.90;;;;;;5088025;28;20053;-37
2023/11/20 06:18:56;;;;;;;7.97;2.35;;;11.90;99.90;;;;;;5086589;28;20028;-36
2023/11/20 06:21:22;;;;;;;15.52;3.00;;;11.90;99.90;;;;;;5088162;28;20032;-36
2023/11/20 06:23:48;;;;;;;9.32;1.98;;;11.90;99.90;;;;;;5087710;28;20019;-37
2023/11/20 06:26:13;;;;;;;9.88;1.95;;;11.90;99.90;;;;;;5086985;28;20494;-36
2023/11/20 06:28:42;;;;;;;10.25;2.35;;;11.80;99.90;;;;;;5087128;28;20075;-37
2023/11/20 06:31:09;;;;;;;12.20;3.50;;;11.80;99.90;;;;;;5087198;28;20602;-37
2023/11/20 06:33:35;;;;;;;11.50;2.28;;;11.80;99.90;;;;;;5086349;28;20027;-37
2023/11/20 06:36:02;;;;;;;11.07;2.40;;;11.80;99.90;;;;;;5086971;28;20414;-37
2023/11/20 06:38:28;;;;;;;9.52;2.17;;;11.70;99.90;;;;;;5087830;28;20035;-37
2023/11/20 06:40:55;;;;;;;10.05;2.00;;;11.70;99.90;;;;;;5086900;28;20757;-37
2023/11/20 06:43:21;;;;;;;10.98;3.03;;;11.70;99.90;;;;;;5087578;28;20016;-37
2023/11/20 06:45:47;;;;;;;13.77;2.22;;;11.70;99.90;;;;;;5087895;28;20039;-37
2023/11/20 06:48:13;;;;;;;11.95;2.35;;;11.70;99.90;;;;;;5086378;28;20085;-37
2023/11/20 06:50:38;;;;;;;8.88;2.05;;;11.70;99.90;;;;;;5073960;28;20056;-37
2023/11/20 06:53:04;;;;;;;9.48;2.17;;;11.60;99.90;;;;;;5070162;28;20017;-37
2023/11/20 06:55:30;;;;;;;10.05;2.30;;;11.70;99.90;;;;;;5075494;28;20020;-37
2023/11/20 06:57:56;;;;;;;10.98;2.35;;;11.60;99.90;;;;;;5067808;28;20542;-37
2023/11/20 07:00:21;;;;;;;9.80;2.35;;;11.60;99.90;;;;;;5078233;28;20056;-37
2023/11/20 07:02:47;;;;;;;12.82;2.47;;;11.60;99.90;;;;;;5067375;28;20031;-36
2023/11/20 07:05:16;;;;;;;14.52;3.17;;;11.60;99.90;;;;;;5074747;28;20812;-37
2023/11/20 07:07:50;;;;;;;9.98;2.55;;;11.60;99.90;;;;;;5064413;28;20047;-37
2023/11/20 07:10:23;;;;;;;10.60;2.42;;;11.60;99.90;;;;;;5071657;28;20024;-37
2023/11/20 07:12:49;;;;;;;;;;;11.60;99.90;;;;;;5082383;28;20474;-37
2023/11/20 07:15:15;;;;;;;13.27;2.90;;;11.60;99.90;;;;;;5069942;28;19976;-38
2023/11/20 07:17:41;;;;;;;11.02;2.35;;;11.60;99.90;;;;;;5083240;28;20562;-37
2023/11/20 07:20:08;;;;;;;8.60;2.97;;;11.60;99.90;;;;;;5070592;28;20078;-36
2023/11/20 07:22:35;;;;;;;15.30;3.90;;;11.60;99.90;;;;;;5083240;28;20377;-41
2023/11/20 07:25:01;;;;;;;10.63;2.50;;;11.60;99.90;;;;;;5071268;28;20525;-36
2023/11/20 07:27:26;;;;;;;15.10;2.63;;;11.60;99.90;;;;;;5081292;28;20120;-37
2023/11/20 07:29:52;;;;;;;11.90;2.65;;;11.60;99.90;;;;;;5073074;28;20139;-36
2023/11/20 07:32:17;;;;;;;10.43;2.42;;;11.60;99.90;;;;;;5078479;28;20024;-37
2023/11/20 07:34:43;;;;;;;10.25;2.25;;;11.50;99.90;;;;;;5076657;28;20751;-36
2023/11/20 07:37:09;;;;;;;6.72;1.80;;;11.50;99.90;;;;;;5074130;28;20051;-37
2023/11/20 07:39:34;;;;;;;13.57;2.30;;;11.50;99.90;;;;;;5079901;28;20024;-36
2023/11/20 07:42:00;;;;;;;10.55;2.38;;;11.50;99.90;;;;;;5073275;28;20032;-37
2023/11/20 07:44:29;;;;;;;9.90;2.25;;;11.60;99.90;;;;;;5081410;28;20111;-37
2023/11/20 07:46:54;;;;;;;9.35;2.30;;;11.60;99.90;;;;;;5072356;28;20048;-37
2023/11/20 07:49:20;;;;;;;12.15;2.20;;;11.60;99.90;;;;;;5081112;28;20052;-37
2023/11/20 07:51:47;;;;;;;11.05;2.20;;;11.60;99.90;;;;;;5070934;28;20667;-37
2023/11/20 07:54:15;;;;;;;12.07;3.35;;;11.50;99.90;;;;;;5082823;28;20093;-36
2023/11/20 07:56:40;;;;;;;8.80;2.00;;;11.50;99.90;;;;;;5069919;28;20054;-37
2023/11/20 07:59:06;;;;;;;6.45;2.22;;;11.50;99.90;;;;;;5082839;28;20140;-36
2023/11/20 08:01:36;;;;;;;12.68;2.15;;;11.60;99.90;;;;;;5069675;28;20132;-36
2023/11/20 08:04:04;;;;;;;10.85;2.70;;;11.60;99.90;;;;;;5082444;28;20024;-37
2023/11/20 08:06:31;;;;;;;12.57;2.28;;;11.60;99.90;;;;;;5070362;28;20836;-36
2023/11/20 08:08:56;;;;;;;10.52;2.20;;;11.60;99.90;;;;;;5081906;28;20143;-37
2023/11/20 08:11:22;;;;;;;10.55;2.70;;;11.60;99.90;;;;;;5072207;28;20062;-37
2023/11/20 08:13:48;;;;;;;13.20;2.85;;;11.60;99.90;;;;;;5078820;28;20019;-37
2023/11/20 08:16:14;;;;;;;11.63;3.20;;;11.60;99.90;;;;;;5076431;28;20028;-37
2023/11/20 08:18:42;;;;;;;11.60;2.90;;;11.50;99.90;;;;;;5075966;28;20035;-37
2023/11/20 08:21:08;;;;;;;14.05;3.15;;;11.50;99.90;;;;;;5077779;28;20100;-37
2023/11/20 08:23:34;;;;;;;12.13;2.47;;;11.50;99.90;;;;;;5075171;28;20033;-36
2023/11/20 08:26:00;;;;;;;13.52;2.42;;;11.40;99.90;;;;;;5078811;28;20016;-35
2023/11/20 08:28:25;;;;;;;12.23;2.50;;;11.40;99.90;;;;;;5071559;28;20078;-36
2023/11/20 08:30:51;;;;;;;8.65;2.13;;;11.40;99.90;;;;;;5080939;28;20041;-37
2023/11/20 08:33:16;;;;;;;12.60;2.33;;;11.40;99.90;;;;;;5071151;28;20016;-37
2023/11/20 08:35:42;;;;;;;11.57;2.72;;;11.50;99.90;;;;;;5082630;28;20384;-37
2023/11/20 08:38:08;;;;;;;11.65;2.50;;;11.50;99.90;;;;;;5069998;28;20016;-38
2023/11/20 08:40:34;;;;;;;10.07;2.10;;;11.50;99.90;;;;;;5082048;28;20055;-37
2023/11/20 08:42:59;;;;;;;12.80;1.95;;;11.60;99.90;;;;;;5069496;28;20052;-37
2023/11/20 08:45:26;;;;;;;11.30;3.78;;;11.60;99.90;;;;;;5083121;28;20107;-36
2023/11/20 08:47:56;;;;;;;11.30;2.42;;;11.60;99.90;;;;;;5069353;28;20093;-37
2023/11/20 08:50:25;;;;;;;10.45;2.45;;;11.70;99.90;;;;;;5081197;28;20044;-36
2023/11/20 08:52:54;;;;;;;12.93;2.28;;;11.70;99.90;;;;;;5070581;28;20105;-36
2023/11/20 08:55:19;;;;;;;12.32;2.60;;;11.70;99.90;;;;;;5079133;28;20383;-37
2023/11/20 08:57:45;;;;;;;13.65;2.78;;;11.70;99.90;;;;;;5073866;28;20464;-37
2023/11/20 09:00:14;;;;;;;9.43;2.53;;;11.80;99.90;;;;;;5076663;28;20076;-36
2023/11/20 09:02:41;;;;;;;11.20;2.50;;;11.80;99.90;;;;;;5075183;28;20027;-36
2023/11/20 09:05:10;;;;;;;12.23;3.42;;;11.80;99.90;;;;;;5061731;28;20020;-35
2023/11/20 09:07:36;;;;;;;13.68;3.20;;;11.90;99.90;;;;;;5062725;28;20020;-35
2023/11/20 09:10:04;;;;;;;9.60;2.65;;;11.90;99.90;;;;;;5071807;28;20039;-36
2023/11/20 09:12:30;;;;;;;12.85;3.00;;;11.90;99.90;;;;;;5079666;28;20467;-43
2023/11/20 09:14:56;;;;;;;14.90;2.90;;;11.90;99.90;;;;;;5067937;28;20043;-43
2023/11/20 09:17:24;;;;;;;10.52;2.40;;;11.90;99.90;;;;;;5080013;28;20437;-37
2023/11/20 09:19:49;;;;;;;13.88;3.67;;;11.90;99.90;;;;;;5069826;28;20028;-37
2023/11/20 09:22:18;;;;;;;11.65;2.75;;;11.90;99.90;;;;;;5062169;28;20082;-36
2023/11/20 09:24:53;;;;;;;10.25;2.53;;;11.90;99.90;;;;;;5070088;28;20038;-39
2023/11/20 09:27:19;;;;;;;9.63;2.65;;;12.00;99.90;;;;;;5077841;28;20102;-37
2023/11/20 09:29:48;;;;;;;19.00;3.45;;;12.00;99.90;;;;;;5067914;28;20103;-36
2023/11/20 09:32:13;;;;;;;11.98;2.83;;;12.00;99.90;;;;;;5081488;28;20538;-37
2023/11/20 09:34:39;;;;;;;9.73;2.85;;;12.10;99.90;;;;;;5067991;28;20024;-37
2023/11/20 09:37:05;;;;;;;12.18;3.85;;;12.10;99.90;;;;;;5081001;28;20031;-37
2023/11/20 09:39:31;;;;;;;12.00;2.80;;;12.10;99.90;;;;;;5068586;28;20028;-37
2023/11/20 09:41:57;;;;;;;12.65;3.20;;;12.10;99.90;;;;;;5060386;28;20074;-36
2023/11/20 09:44:27;;;;;;;9.90;2.40;;;12.20;99.90;;;;;;5071239;28;20031;-37
2023/11/20 09:46:53;;;;;;;14.13;2.88;;;12.30;99.90;;;;;;5076914;28;20027;-37
2023/11/20 09:49:26;;;;;;;11.75;2.88;;;12.20;99.90;;;;;;5074375;28;20063;-37
2023/11/20 09:51:52;;;;;;;;;;;12.30;99.90;;;;;;5075212;28;20040;-37
2023/11/20 09:54:18;;;;;;;11.43;2.72;;;12.30;99.90;;;;;;5076373;28;19908;-37
2023/11/20 09:56:44;;;;;;;12.55;3.08;;;12.20;99.90;;;;;;5071869;28;20031;-37
2023/11/20 09:59:12;;;;;;;11.98;2.90;;;12.20;99.90;;;;;;5077823;28;20020;-38
2023/11/20 10:01:48;;;;;;;12.70;3.25;;;12.20;99.90;;;;;;5070995;28;20090;-39
2023/11/20 10:04:18;;;;;;;11.52;2.90;;;12.20;99.90;;;;;;5079038;28;20395;-36
2023/11/20 10:06:45;;;;;;;12.57;3.40;;;12.20;99.90;;;;;;5059762;28;20051;-37
2023/11/20 10:09:18;;;;;;;9.52;3.53;;;12.20;99.90;;;;;;5079328;28;20120;-38
2023/11/20 10:11:47;;;;;;;17.80;3.63;;;12.10;99.90;;;;;;5069157;28;20114;-37
2023/11/20 10:14:19;;;;;;;14.50;3.30;;;12.10;99.90;;;;;;5079728;28;20099;-37
2023/11/20 10:16:46;;;;;;;10.98;3.10;;;12.10;99.90;;;;;;5069666;28;20047;-38
2023/11/20 10:19:14;;;;;;;16.02;4.95;;;12.10;99.90;;;;;;5079974;28;20028;-37
2023/11/20 10:21:43;;;;;;;11.95;2.78;;;12.10;99.90;;;;;;5068619;28;20031;-38
2023/11/20 10:24:16;;;;;;;11.18;2.95;;;12.20;99.90;;;;;;5080308;28;20016;-37
2023/11/20 10:26:42;;;;;;;17.90;4.32;;;12.20;99.90;;;;;;5072386;28;20037;-37
2023/11/20 10:29:09;;;;;;;13.80;3.72;;;12.30;99.90;;;;;;5059797;28;20431;-36
2023/11/20 10:31:45;;;;;;;10.48;3.40;;;12.30;99.90;;;;;;5072315;28;20040;-37
2023/11/20 10:34:11;;;;;;;12.70;4.32;;;12.40;99.90;;;;;;5059640;28;20039;-37
2023/11/20 10:36:37;;;;;;;13.63;4.10;;;12.40;99.90;;;;;;5072435;28;20044;-36
2023/11/20 10:39:04;;;;;;;12.70;3.65;;;12.30;99.90;;;;;;5040194;28;20104;-38
2023/11/20 10:41:33;;;;;;;12.18;3.60;;;12.30;99.90;;;;;;5067965;28;20034;-40
2023/11/20 10:43:59;;;;;;;17.90;3.92;;;12.30;99.90;;;;;;5064984;28;20396;-37
2023/11/20 10:46:28;;;;;;;16.58;4.25;;;12.30;99.90;;;;;;5070124;28;20412;-38
2023/11/20 10:48:55;;;;;;;8.25;3.00;;;12.30;99.90;;;;;;5072009;28;20778;-37
2023/11/20 10:51:23;;;;;;;10.98;3.65;;;12.20;99.90;;;;;;5084147;28;20524;-37
2023/11/20 10:54:02;;;;;;;10.05;3.20;;;12.30;99.90;;;;;;5083222;28;20424;-38
2023/11/20 10:56:34;;;;;;;16.75;5.15;;;12.40;99.90;;;;;;5084041;28;20030;-36
2023/11/20 10:59:01;;;;;;;12.40;4.18;;;12.40;99.90;;;;;;5083677;28;20024;-36
2023/11/20 11:01:32;;;;;;;12.68;4.45;;;12.50;99.90;;;;;;5083404;28;20816;-37
2023/11/20 11:03:58;;;;;;;16.30;6.32;;;12.60;99.90;;;;;;5085085;28;20110;-37
2023/11/20 11:06:24;;;;;;;11.48;4.97;;;12.70;99.90;;;;;;5083460;28;20024;-38
2023/11/20 11:08:51;;;;;;;16.48;6.05;;;12.80;99.90;;;;;;5082563;28;20028;-38
2023/11/20 11:11:18;;;;;;;16.48;5.78;;;12.80;99.90;;;;;;5083982;28;20032;-38
2023/11/20 11:13:47;;;;;;;13.02;5.93;;;12.90;99.90;;;;;;5083826;28;20017;-38
2023/11/20 11:16:28;;;;;;;11.98;6.22;;;12.90;99.90;;;;;;5082490;28;20089;-38
2023/11/20 11:19:02;;;;;;;14.73;4.80;;;13.00;99.90;;;;;;5083886;28;20024;-39
2023/11/20 11:21:36;;;;;;;13.82;5.38;;;12.90;99.90;;;;;;5083278;28;20028;-36
2023/11/20 11:24:03;;;;;;;15.43;4.95;;;12.90;99.90;;;;;;5082989;28;20058;-37
2023/11/20 11:27:00;;;;;;;12.10;4.93;;;12.80;99.90;;;;;;5083877;28;20101;-39
2023/11/20 11:29:31;;;;;;;11.82;5.05;;;12.70;99.90;;;;;;5082208;28;20028;-37
2023/11/20 11:32:06;;;;;;;10.00;4.43;;;12.70;99.90;;;;;;5083005;28;20035;-37
2023/11/20 11:34:43;;;;;;;11.10;4.32;;;12.70;99.90;;;;;;5083522;28;20032;-37
2023/11/20 11:37:19;;;;;;;10.60;4.55;;;12.80;99.90;;;;;;5082622;28;20291;-37
2023/11/20 11:39:58;;;;;;;9.50;4.20;;;12.80;99.90;;;;;;5083146;28;20115;-36
2023/11/20 11:42:36;;;;;;;10.93;4.10;;;12.90;99.90;;;;;;5082648;28;20028;-36
2023/11/20 11:45:17;;;;;;;10.05;4.38;;;12.90;99.90;;;;;;5072073;28;20028;-39
2023/11/20 11:47:47;;;;;;;9.32;3.45;;;12.90;99.90;;;;;;5083032;28;20031;-37
2023/11/20 11:50:17;;;;;;;10.38;3.78;;;12.90;99.90;;;;;;5081378;28;20052;-37
2023/11/20 11:52:48;;;;;;;11.65;4.15;;;13.00;99.90;;;;;;5081703;28;20820;-37
2023/11/20 11:55:16;;;;;;;10.93;4.05;;;13.00;99.90;;;;;;5083017;28;20028;-37
2023/11/20 11:57:48;;;;;;;6.70;3.30;;;13.00;99.90;;;;;;5081847;28;20024;-37
2023/11/20 12:00:17;;;;;;;9.48;3.13;;;13.00;99.90;;;;;;5082348;28;20035;-38
2023/11/20 12:02:55;;;;;;;8.40;3.10;;;13.00;99.90;;;;;;5082436;28;20039;-38
2023/11/20 12:05:22;;;;;;;8.68;3.20;;;13.00;99.90;;;;;;5079384;28;20024;-38
2023/11/20 12:07:49;;;;;;;11.93;3.20;;;12.90;99.90;;;;;;5082131;28;20069;-37
2023/11/20 12:10:16;;;;;;;9.43;2.58;;;12.90;99.90;;;;;;5080979;28;20030;-36
2023/11/20 12:12:57;;;;;;;10.35;3.13;;;12.80;99.90;;;;;;5083603;28;20035;-38
2023/11/20 12:15:47;;;;;;;9.02;2.20;;;12.80;99.90;;;;;;5082806;28;20846;-37
2023/11/20 12:18:39;;;;;;;8.98;2.10;;;12.80;99.90;;;;;;5082635;28;20111;-38
2023/11/20 12:21:09;;;;;;;9.50;2.47;;;12.90;99.90;;;;;;5081807;28;20040;-38
2023/11/20 12:23:37;;;;;;;7.03;2.10;;;13.00;99.90;;;;;;5083750;28;20035;-38
2023/11/20 12:26:07;;;;;;;10.00;2.65;;;13.00;99.90;;;;;;5082567;28;20020;-37
2023/11/20 12:28:35;;;;;;;12.45;2.45;;;13.10;99.90;;;;;;5082614;28;20040;-37
2023/11/20 12:31:05;;;;;;;11.00;2.40;;;13.20;99.90;;;;;;5081058;28;20032;-36
2023/11/20 12:33:36;;;;;;;10.98;2.60;;;13.20;99.90;;;;;;5082429;28;20482;-37
2023/11/20 12:36:02;;;;;;;11.48;3.58;;;13.30;99.90;;;;;;5081306;28;20020;-38
2023/11/20 12:38:38;;;;;;;10.40;2.30;;;13.30;99.90;;;;;;5081148;28;20017;-37
2023/11/20 12:41:07;;;;;;;7.05;2.15;;;13.30;99.90;;;;;;5081870;28;20714;-37
2023/11/20 12:43:35;;;;;;;7.93;2.30;;;13.20;99.90;;;;;;5082072;28;20452;-38